AirNav   Everest Fuels
 
 1332 users online  

NH24 Prescott Hill Heliport
Grafton, New Hampshire, USA

GOING TO GRAFTON?


FAA INFORMATION EFFECTIVE 30 JANUARY 2020

Location

FAA Identifier: NH24
Lat/Long: 43-32-43.0000N 071-59-46.0000W
43-32.716667N 071-59.766667W
43.5452778,-71.9961111
(estimated)
Elevation: 1460 ft. / 445 m (estimated)
From city: 2 miles S of GRAFTON, NH
Time zone: UTC -5 (UTC -4 during Daylight Saving Time)
Zip code: 03240

Heliport Operations

Heliport use: Private use. Permission required prior to landing
Activation date: 11/2005
Control tower: no
ARTCC: BOSTON CENTER
FSS: BANGOR FLIGHT SERVICE STATION
Attendance: UNATNDD
Segmented circle: no

Heliport Communications

WX ASOS at LEB (14 nm W): 118.65 (603-298-8780)
WX AWOS-3 at 1P1 (17 nm NE): 118.45 (603-536-1698)

Nearby radio navigation aids

VOR radial/distance  VOR name  Freq  Var
LEBr145/12.5LEBANON VOR/DME113.7015W
CONr332/26.8CONCORD VOR/DME112.9015W
MPVr165/37.9MONTPELIER VOR/DME110.8016W

 
NDB name  Hdg/Dist  Freq  Var  ID
HANOVER155/12.327615WLAH .-.. .- ....
CLAREMONT073/19.523316WCNH -.-. -. ....

Heliport Services

Runway Information

Helipad H1

Dimensions: 20 x 20 ft. / 6 x 6 m
Surface: turf
Traffic pattern: leftleft

Heliport Ownership and Management from official FAA records

Ownership: Privately-owned
Owner: EDWARD K. ERNSTROM
P.O. BOX 263
TOWACO, NJ 07082
Phone 973-263-5054
Manager: EDWARD K. ERNSTROM
P.O. BOX 263
TOWACO, NJ 07082-0263
Phone 973-263-5054

Additional Remarks

OWNER DESIRES HELIPAD NOT BE CHARTED.
PRIOR PERMISSION REQUIRED VFR ONLY DAYLIGHT ONLY
FOR CD CTC BOSTON ARTCC AT 603-879-6859.

Instrument Procedures

There are no published instrument procedures at NH24.

Some nearby airports with instrument procedures:

2B3 - Parlin Field Airport (13 nm SW)
KLEB - Lebanon Municipal Airport (14 nm W)
KCNH - Claremont Municipal Airport (19 nm SW)
KLCI - Laconia Municipal Airport (25 nm E)
KVSF - Hartness State Airport (Springfield) (26 nm SW)
 
Loc | Ops | Rwys | IFR | FBO | Links
Com | Nav | Svcs | Stats | Notes
Area around NH24 (Prescott Hill Heliport)
 
Road maps at: MapQuest Bing Google
 
Aerial photo
No photo
 
Sectional chart

 
Airport distance calculator
Flying to Prescott Hill Heliport? Find the distance to fly.

From to NH24

Sunrise and sunset
Times for 17-Feb-2020
 Local
(UTC-5)
 Zulu
(UTC)
Morning civil twilight06:1511:15
Sunrise06:4511:45
Sunset17:2022:20
Evening civil twilight17:4922:49

Current date and time
Zulu (UTC)  17-Feb-2020 15:41:12
Local (UTC-5)  17-Feb-2020 10:41:12
 
METAR
KLEB 
14nm W 
171453Z 35004KT 10SM FEW048 01/M09 A3018 RMK AO2 SLP230 T00061094 51019
K1P1 
18nm NE 
171515Z AUTO 28011G20KT 10SM CLR 00/M10 A3018 RMK AO2 T10021104
KLCI 
25nm E 
171456Z AUTO 31009KT 10SM FEW042 01/M11 A3017 RMK AO2 SLP225 60000 T00061106 51021 FZRANO
KVSF 
26nm SW 
171454Z AUTO 31009G17KT 290V350 10SM CLR 01/M11 A3019 RMK AO2 SLP232 T00061111 51019
TAF
KLEB 
14nm W 
171132Z 1712/1812 VRB03KT P6SM SCT040 FM171400 31008KT P6SM FEW045 FM180100 00000KT P6SM SKC
NOTAMs
Click for the latest NOTAMs
NOTAMs are issued by the DoD/FAA and will open in a separate window not controlled by AirNav.

 

 
 

Would you like to see your business listed on this page?

 If your business provides an interesting product or service to pilots, flight crews, aircraft, or users of the Prescott Hill Heliport, you should consider listing it here.  To start the listing process, click on the button below
 
Add a business
 

Other Pages about Prescott Hill Heliport

Update a link
 
Copyright © AirNav, LLC. All rights reserved. Privacy Policy  Contact